Time;durP1;ratioP1;P1;durP2;ratioP2;P2;SDS_P1;SDS_P2;PMS_P1;PMS_P2;Temp;Humidity;BMP_temperature;BMP_pressure;BME280_temperature;BME280_humidity;BME280_pressure;Samples;Min_cycle;Max_cycle;Signal;HPM_P1;HPM_P2
2021/03/22 00:00:43;;;;;;;5.00;1.70;;;;;;;-3.98;100.00;101010.66;5022473;28;20062;-72
2021/03/22 00:03:11;;;;;;;1.90;1.20;;;;;;;-3.98;100.00;101013.22;5022188;28;20040;-72
2021/03/22 00:05:37;;;;;;;2.50;1.30;;;;;;;-4.01;100.00;101020.84;5018309;28;20041;-72
2021/03/22 00:08:04;;;;;;;2.57;1.43;;;;;;;-4.06;100.00;101017.16;5022600;28;20033;-72
2021/03/22 00:10:31;;;;;;;2.80;1.27;;;;;;;-4.08;100.00;101013.66;4990851;28;20068;-72
2021/03/22 00:12:58;;;;;;;2.10;1.10;;;;;;;-4.10;100.00;101017.00;5025102;28;20060;-72
2021/03/22 00:15:30;;;;;;;2.70;1.80;;;;;;;-4.13;100.00;101014.25;5020215;28;20048;-72
2021/03/22 00:17:56;;;;;;;1.47;1.00;;;;;;;-4.11;100.00;101010.06;5024775;28;20933;-73
2021/03/22 00:20:24;;;;;;;2.80;1.30;;;;;;;-4.13;100.00;101009.09;5010048;28;20090;-72
2021/03/22 00:22:50;;;;;;;5.30;1.40;;;;;;;-4.16;100.00;101012.44;5004041;28;20075;-72
2021/03/22 00:25:18;;;;;;;3.63;1.30;;;;;;;-4.18;100.00;101011.47;5022928;28;20033;-72
2021/03/22 00:27:44;;;;;;;4.93;1.30;;;;;;;-4.21;100.00;101008.75;5021538;28;20045;-72
2021/03/22 00:30:17;;;;;;;2.33;1.20;;;;;;;-4.18;100.00;101011.47;5024801;28;20041;-72
2021/03/22 00:32:43;;;;;;;2.20;1.37;;;;;;;-4.23;100.00;101010.38;5026526;28;20099;-72
2021/03/22 00:35:10;;;;;;;2.07;1.37;;;;;;;-4.26;100.00;101013.72;5023149;28;20160;-72
2021/03/22 00:37:36;;;;;;;2.57;1.40;;;;;;;-4.26;100.00;101012.84;5043221;28;20069;-72
2021/03/22 00:40:03;;;;;;;3.20;1.37;;;;;;;-4.28;100.00;101015.34;5023042;28;20490;-72
2021/03/22 00:42:29;;;;;;;3.37;1.33;;;;;;;-4.31;100.00;101010.03;5024053;28;20071;-72
2021/03/22 00:44:55;;;;;;;2.47;1.10;;;;;;;-4.28;100.00;101014.47;5022502;28;20052;-72
2021/03/22 00:47:21;;;;;;;8.07;2.00;;;;;;;-4.30;100.00;101014.38;5008262;28;20502;-72
2021/03/22 00:49:48;;;;;;;2.43;1.10;;;;;;;-4.32;100.00;101013.44;5022185;28;20045;-72
2021/03/22 00:52:14;;;;;;;3.80;1.10;;;;;;;-4.33;100.00;101005.63;5008852;28;20071;-72
2021/03/22 00:54:40;;;;;;;3.63;1.50;;;;;;;-4.36;100.00;101000.34;5022906;28;20041;-70
2021/03/22 00:57:08;;;;;;;3.20;1.10;;;;;;;-4.36;100.00;101011.56;5024305;28;20045;-70
2021/03/22 00:59:34;;;;;;;2.63;1.20;;;;;;;-4.35;100.00;101004.69;5008908;28;20553;-70
2021/03/22 01:02:02;;;;;;;2.93;1.27;;;;;;;-4.35;100.00;101009.84;5041151;28;20041;-70
2021/03/22 01:04:28;;;;;;;2.77;1.37;;;;;;;-4.34;100.00;101007.34;5024357;28;20080;-69
2021/03/22 01:06:54;;;;;;;2.07;1.10;;;;;;;-4.35;100.00;101008.16;5037617;28;20033;-70
2021/03/22 01:09:20;;;;;;;2.27;1.00;;;;;;;-4.34;100.00;101004.75;5025631;28;20045;-70
2021/03/22 01:11:47;;;;;;;2.80;1.20;;;;;;;-4.35;100.00;101002.13;5035763;28;20044;-69
2021/03/22 01:14:13;;;;;;;3.83;1.30;;;;;;;-4.35;100.00;101000.41;5007967;28;20627;-70
2021/03/22 01:16:39;;;;;;;3.07;1.73;;;;;;;-4.32;100.00;100997.97;5023920;28;20048;-70
2021/03/22 01:19:19;;;;;;;3.50;1.10;;;;;;;-4.26;100.00;100998.25;5034939;28;20102;-70
2021/03/22 01:21:58;;;;;;;2.70;1.63;;;;;;;-4.28;100.00;100999.88;5022910;28;20037;-69
2021/03/22 01:24:26;;;;;;;2.60;1.20;;;;;;;-4.32;100.00;100997.09;5008907;28;20045;-69
2021/03/22 01:26:55;;;;;;;2.57;1.10;;;;;;;-4.32;100.00;100994.50;4991705;28;20053;-70
2021/03/22 01:29:24;;;;;;;3.40;1.20;;;;;;;-4.33;100.00;100991.03;5023035;28;20518;-70
2021/03/22 01:31:53;;;;;;;2.47;1.00;;;;;;;-4.36;100.00;100997.78;5025471;28;20135;-70
2021/03/22 01:34:20;;;;;;;2.43;1.00;;;;;;;-4.35;100.00;101002.13;5008477;28;20045;-70
2021/03/22 01:36:46;;;;;;;1.67;1.10;;;;;;;-4.37;100.00;100995.97;5006293;28;20103;-70
2021/03/22 01:39:19;;;;;;;1.50;0.93;;;;;;;-4.36;100.00;100992.63;5037117;28;20041;-70
2021/03/22 01:41:51;;;;;;;2.43;0.90;;;;;;;-4.37;100.00;100995.97;5005253;28;20056;-70
2021/03/22 01:44:22;;;;;;;1.10;0.90;;;;;;;-4.39;100.00;100989.88;5041380;28;20037;-70
2021/03/22 01:46:52;;;;;;;1.87;0.87;;;;;;;-4.36;100.00;100984.88;5009214;28;20445;-70
2021/03/22 01:49:19;;;;;;;1.00;0.80;;;;;;;-4.35;100.00;100989.22;5004028;28;20033;-70
2021/03/22 01:51:47;;;;;;;1.17;0.80;;;;;;;-4.34;100.00;100986.69;5021823;28;20037;-70
2021/03/22 01:54:13;;;;;;;1.30;0.90;;;;;;;-4.33;100.00;100991.03;4999743;28;20069;-70
2021/03/22 01:56:54;;;;;;;0.90;0.80;;;;;;;-4.32;100.00;100981.59;5005835;28;20134;-70
2021/03/22 01:59:27;;;;;;;2.33;0.90;;;;;;;-4.32;100.00;100986.75;4999222;28;20036;-70
2021/03/22 02:02:02;;;;;;;2.17;1.10;;;;;;;-4.31;100.00;100984.25;5025108;28;20110;-70
2021/03/22 02:04:29;;;;;;;1.33;1.03;;;;;;;-4.28;100.00;100988.69;5022760;28;20460;-70
2021/03/22 02:06:56;;;;;;;2.20;1.00;;;;;;;-4.30;100.00;100987.72;5017074;28;20063;-70
2021/03/22 02:09:22;;;;;;;1.90;1.00;;;;;;;-4.33;100.00;100993.63;5015814;28;20029;-70
2021/03/22 02:11:48;;;;;;;1.60;1.07;;;;;;;-4.34;100.00;100994.44;5037733;28;20052;-69
2021/03/22 02:14:15;;;;;;;1.30;0.80;;;;;;;-4.34;100.00;100993.56;5000559;28;20040;-69
2021/03/22 02:17:39;;;;;;;1.50;1.03;;;;;;;-4.38;100.00;100996.78;5024536;28;20738;-70
2021/03/22 02:20:08;;;;;;;1.60;1.00;;;;;;;-4.38;100.00;101001.97;5036626;28;20128;-70
2021/03/22 02:23:05;;;;;;;2.57;1.00;;;;;;;-4.39;100.00;100998.50;5025521;28;20045;-70
2021/03/22 02:25:56;;;;;;;1.23;0.90;;;;;;;-4.44;100.00;100994.84;5020139;28;20041;-70
2021/03/22 02:28:39;;;;;;;2.00;0.77;;;;;;;-4.45;100.00;100995.66;5003189;28;20037;-70
2021/03/22 02:31:27;;;;;;;1.77;1.40;;;;;;;-4.47;100.00;100993.81;5008748;28;20037;-70
2021/03/22 02:34:09;;;;;;;1.20;1.10;;;;;;;-4.51;100.00;100997.06;5039205;28;20052;-70
2021/03/22 02:36:48;;;;;;;1.93;1.00;;;;;;;-4.55;100.00;100999.50;5007566;28;20525;-70
2021/03/22 02:39:15;;;;;;;1.63;0.90;;;;;;;-4.58;100.00;101007.09;5025826;28;20068;-70
2021/03/22 02:41:48;;;;;;;2.23;1.00;;;;;;;-4.60;100.00;101006.16;5004643;28;20063;-70
2021/03/22 02:44:25;;;;;;;1.97;0.90;;;;;;;-4.58;100.00;101009.69;5034515;28;20579;-70
2021/03/22 02:46:56;;;;;;;1.43;0.90;;;;;;;-4.60;100.00;101001.00;5008750;28;20102;-69
2021/03/22 02:49:24;;;;;;;2.13;1.20;;;;;;;-4.59;100.00;101017.34;5024176;28;20117;-70
2021/03/22 02:52:23;;;;;;;2.43;1.60;;;;;;;-4.62;100.00;100999.19;4999032;28;20040;-70
2021/03/22 02:55:06;;;;;;;1.37;0.90;;;;;;;-4.63;100.00;101015.44;5021916;28;20137;-70
2021/03/22 02:57:51;;;;;;;0.83;0.80;;;;;;;-4.67;100.00;101018.69;5042333;28;20037;-71
2021/03/22 03:00:35;;;;;;;2.05;1.00;;;;;;;-4.66;100.00;101020.44;5010406;28;20058;-70
2021/03/22 03:03:04;;;;;;;;;;;;;;;-4.71;100.00;101025.38;5012694;28;20639;-70
2021/03/22 03:05:32;;;;;;;2.80;0.90;;;;;;;-4.67;100.00;101021.28;5026320;28;19928;-69
2021/03/22 03:08:00;;;;;;;2.13;1.00;;;;;;;-4.68;100.00;101022.97;5009232;28;20037;-70
2021/03/22 03:10:26;;;;;;;1.63;0.93;;;;;;;-4.69;100.00;101020.31;5004328;28;20388;-69
2021/03/22 03:12:52;;;;;;;2.93;1.20;;;;;;;-4.71;100.00;101022.81;5027888;28;20186;-70
2021/03/22 03:15:21;;;;;;;1.40;1.30;;;;;;;-4.74;100.00;101020.09;5046279;28;20208;-70
2021/03/22 03:17:48;;;;;;;2.30;1.00;;;;;;;-4.75;100.00;101014.88;5020949;28;20038;-69
2021/03/22 03:20:20;;;;;;;1.60;1.00;;;;;;;-4.71;100.00;101017.66;5024456;28;20044;-70
2021/03/22 03:22:47;;;;;;;4.30;1.50;;;;;;;-4.67;100.00;101027.31;5044213;28;20118;-69
2021/03/22 03:25:13;;;;;;;2.17;1.00;;;;;;;-4.64;100.00;101029.13;5011658;28;20645;-69
2021/03/22 03:27:40;;;;;;;1.10;0.83;;;;;;;-4.65;100.00;101022.22;5044522;28;20036;-69
2021/03/22 03:30:08;;;;;;;1.67;0.90;;;;;;;-4.68;100.00;101027.25;5023518;28;20539;-69
2021/03/22 03:32:34;;;;;;;1.93;0.93;;;;;;;-4.68;100.00;101028.13;5011658;28;20106;-69
2021/03/22 03:35:01;;;;;;;2.23;0.97;;;;;;;-4.67;100.00;101021.28;5008752;28;20048;-69
2021/03/22 03:37:27;;;;;;;1.27;0.83;;;;;;;-4.69;100.00;101023.78;5009265;28;20049;-69
2021/03/22 03:39:53;;;;;;;3.00;1.13;;;;;;;-4.69;100.00;101025.47;5040014;28;20171;-70
2021/03/22 03:42:19;;;;;;;2.27;0.90;;;;;;;-4.71;100.00;101033.13;5020505;28;20048;-69
2021/03/22 03:44:45;;;;;;;2.37;0.90;;;;;;;-4.73;100.00;101031.28;5025298;28;20494;-70
2021/03/22 03:47:12;;;;;;;2.10;1.00;;;;;;;-4.75;100.00;101036.38;5038014;28;20042;-69
2021/03/22 03:49:38;;;;;;;1.90;0.87;;;;;;;-4.77;100.00;101040.59;5042452;28;20040;-69
2021/03/22 03:52:05;;;;;;;2.83;1.10;;;;;;;-4.79;100.00;101044.78;5040630;28;20037;-69
2021/03/22 03:54:32;;;;;;;3.00;1.10;;;;;;;-4.81;100.00;101047.28;5027816;28;20052;-69
2021/03/22 03:56:59;;;;;;;1.97;1.13;;;;;;;-4.80;100.00;101037.84;5006570;28;20130;-69
2021/03/22 03:59:25;;;;;;;2.83;0.87;;;;;;;-4.82;100.00;101042.94;5022713;28;20088;-69
2021/03/22 04:01:52;;;;;;;2.87;1.10;;;;;;;-4.82;100.00;101036.91;5043774;28;20037;-69
2021/03/22 04:04:19;;;;;;;2.77;1.10;;;;;;;-4.86;100.00;101042.72;5026360;28;20033;-69
2021/03/22 04:06:45;;;;;;;2.13;1.07;;;;;;;-4.89;100.00;101048.59;5025640;28;20702;-69
2021/03/22 04:09:14;;;;;;;2.50;0.93;;;;;;;-4.93;100.00;101050.97;5005737;28;20032;-69
2021/03/22 04:11:42;;;;;;;1.67;0.93;;;;;;;-4.94;100.00;101052.66;5040480;28;20037;-70
2021/03/22 04:14:14;;;;;;;3.57;1.00;;;;;;;-4.97;100.00;101056.78;5029231;28;20612;-69
2021/03/22 04:16:40;;;;;;;1.30;0.70;;;;;;;-4.98;100.00;101058.47;5024019;28;20101;-70
2021/03/22 04:19:06;;;;;;;3.93;1.10;;;;;;;-5.00;100.00;101061.78;5029008;28;20490;-69
2021/03/22 04:21:32;;;;;;;1.60;1.03;;;;;;;-5.03;100.00;101070.25;5026343;28;20033;-69
2021/03/22 04:24:01;;;;;;;1.47;0.80;;;;;;;-5.05;100.00;101077.00;5012609;28;20052;-69
2021/03/22 04:26:27;;;;;;;2.20;1.20;;;;;;;-5.08;100.00;101071.72;4993545;28;20645;-69
2021/03/22 04:28:54;;;;;;;1.77;0.90;;;;;;;-5.10;100.00;101076.81;5027434;28;20502;-70
2021/03/22 04:31:22;;;;;;;1.70;1.00;;;;;;;-5.12;100.00;101074.97;5024084;28;20061;-69
2021/03/22 04:33:50;;;;;;;2.80;1.07;;;;;;;-5.15;100.00;101075.69;5022235;28;20068;-69
2021/03/22 04:36:19;;;;;;;2.00;0.97;;;;;;;-5.15;100.00;101075.69;5025981;28;20593;-69
2021/03/22 04:38:46;;;;;;;1.17;0.80;;;;;;;-5.18;100.00;101070.38;5006932;28;20130;-69
2021/03/22 04:41:12;;;;;;;1.93;1.33;;;;;;;-5.21;100.00;101070.25;5027871;28;20040;-70
2021/03/22 04:43:38;;;;;;;4.67;1.37;;;;;;;-5.22;100.00;101075.31;5024571;28;20502;-69
2021/03/22 04:46:04;;;;;;;1.30;1.00;;;;;;;-5.25;100.00;101078.63;5023590;28;20124;-70
2021/03/22 04:48:34;;;;;;;2.17;1.10;;;;;;;-5.26;100.00;101083.69;5007763;28;20068;-69
2021/03/22 04:51:00;;;;;;;2.83;1.10;;;;;;;-5.30;100.00;101080.06;5023912;28;20546;-69
2021/03/22 04:53:26;;;;;;;4.43;1.60;;;;;;;-5.31;100.00;101098.91;5026814;28;20449;-70
2021/03/22 04:55:52;;;;;;;1.57;1.10;;;;;;;-5.32;100.00;101094.56;5039749;28;20102;-70
2021/03/22 04:58:18;;;;;;;2.67;1.30;;;;;;;-5.34;100.00;101095.31;5022998;28;20100;-69
2021/03/22 05:00:46;;;;;;;3.30;1.47;;;;;;;-5.35;100.00;101086.69;5024364;28;20107;-70
2021/03/22 05:03:18;;;;;;;3.40;1.67;;;;;;;-5.35;100.00;101093.53;5007019;28;20167;-69
2021/03/22 05:05:46;;;;;;;3.90;1.33;;;;;;;-5.35;100.00;101097.00;5040900;28;20124;-69
2021/03/22 05:08:15;;;;;;;2.33;1.43;;;;;;;-5.36;100.00;101094.34;5027826;28;20068;-69
2021/03/22 05:10:44;;;;;;;2.40;1.07;;;;;;;-5.36;100.00;101100.38;5024310;28;20216;-69
2021/03/22 05:13:12;;;;;;;1.83;1.00;;;;;;;-5.37;100.00;101103.78;5040125;28;20067;-69
2021/03/22 05:15:39;;;;;;;2.73;1.20;;;;;;;-5.34;100.00;101108.19;5026634;28;20746;-69
2021/03/22 05:18:06;;;;;;;2.30;1.30;;;;;;;-5.33;100.00;101108.25;5022731;28;20486;-70
2021/03/22 05:20:36;;;;;;;1.97;1.00;;;;;;;-5.29;100.00;101114.47;5026118;28;20578;-70
2021/03/22 05:23:06;;;;;;;2.57;1.37;;;;;;;-5.26;100.00;101112.91;5013396;28;20131;-69
2021/03/22 05:25:33;;;;;;;2.10;1.40;;;;;;;-5.23;100.00;101113.06;5037770;28;20064;-69
2021/03/22 05:28:00;;;;;;;1.57;1.30;;;;;;;-5.19;100.00;101114.09;5041489;28;20122;-69
2021/03/22 05:30:27;;;;;;;1.70;1.23;;;;;;;-5.15;100.00;101111.75;5008872;28;20102;-69
2021/03/22 05:33:01;;;;;;;3.43;1.57;;;;;;;-5.00;100.00;101115.91;5023169;28;20048;-70
2021/03/22 05:35:27;;;;;;;;;;;;;;;-4.99;100.00;101118.53;5028494;28;20095;-69
2021/03/22 05:37:55;;;;;;;2.23;1.60;;;;;;;-4.97;100.00;101118.63;5024781;28;19920;-69
2021/03/22 05:40:35;;;;;;;3.77;2.20;;;;;;;-4.96;100.00;101128.09;5026353;28;20116;-69
2021/03/22 05:43:12;;;;;;;3.73;2.17;;;;;;;-4.94;100.00;101127.41;5026872;28;20110;-69
2021/03/22 05:45:52;;;;;;;4.77;2.17;;;;;;;-4.90;100.00;101137.03;5039525;28;20102;-69
2021/03/22 05:48:45;;;;;;;3.37;1.90;;;;;;;-4.86;100.00;101145.81;5004019;28;20045;-69
2021/03/22 05:51:26;;;;;;;2.47;1.73;;;;;;;-4.83;100.00;101144.25;5009501;28;20745;-69
2021/03/22 05:54:05;;;;;;;3.30;1.57;;;;;;;-4.71;100.00;101151.69;5023068;28;20094;-69
2021/03/22 05:56:45;;;;;;;3.70;1.80;;;;;;;-4.59;100.00;101152.31;5039024;28;20048;-69
2021/03/22 05:59:26;;;;;;;2.90;1.53;;;;;;;-4.45;100.00;101147.81;5014906;28;20037;-71
2021/03/22 06:02:00;;;;;;;2.63;1.43;;;;;;;-4.27;100.00;101166.72;5022472;28;20041;-71
2021/03/22 06:04:41;;;;;;;2.60;1.43;;;;;;;-4.08;100.00;101168.47;5014304;28;20127;-71
2021/03/22 06:07:08;;;;;;;3.97;1.73;;;;;;;-3.86;100.00;101170.34;5023473;28;20045;-71
2021/03/22 06:09:56;;;;;;;4.60;1.47;;;;;;;-3.61;100.00;101172.34;5009161;28;20118;-71
2021/03/22 06:12:28;;;;;;;4.27;1.87;;;;;;;-3.34;100.00;101162.34;4992102;28;20448;-71
2021/03/22 06:15:03;;;;;;;3.40;1.50;;;;;;;-3.05;100.00;101165.25;5042194;28;20047;-71
2021/03/22 06:17:49;;;;;;;3.80;1.50;;;;;;;-2.76;100.00;101164.78;5025578;28;20580;-71
2021/03/22 06:20:20;;;;;;;2.83;2.00;;;;;;;-2.50;100.00;101167.56;5007257;28;20121;-71
2021/03/22 06:22:47;;;;;;;5.23;2.20;;;;;;;-2.29;100.00;101174.44;5026474;28;20038;-71
2021/03/22 06:25:28;;;;;;;4.00;2.40;;;;;;;-2.07;100.00;101171.00;5007641;28;20041;-71
2021/03/22 06:27:57;;;;;;;5.87;2.97;;;;;;;-1.87;100.00;101178.66;5021414;28;20045;-71
2021/03/22 06:30:25;;;;;;;4.50;2.90;;;;;;;-1.70;100.00;101174.97;5024829;28;20061;-71
2021/03/22 06:32:55;;;;;;;5.60;3.33;;;;;;;-1.51;100.00;101185.22;5046514;28;20037;-71
2021/03/22 06:35:31;;;;;;;8.77;3.73;;;;;;;-1.27;100.00;101189.50;5013789;28;20160;-71
2021/03/22 06:37:57;;;;;;;6.07;3.10;;;;;;;-1.08;100.00;101185.88;5023430;28;20053;-72
2021/03/22 06:40:23;;;;;;;4.20;2.60;;;;;;;-0.93;100.00;101187.25;5012196;28;20387;-71
2021/03/22 06:43:10;;;;;;;2.83;2.33;;;;;;;-0.76;100.00;101180.03;5046684;28;20045;-72
2021/03/22 06:45:47;;;;;;;3.63;2.67;;;;;;;-0.56;99.48;101193.69;5010856;28;20041;-71
2021/03/22 06:48:26;;;;;;;3.47;2.07;;;;;;;-0.39;98.53;101191.66;5065881;23;20060;-71
2021/03/22 06:51:15;;;;;;;3.53;1.90;;;;;;;-0.19;97.42;101193.16;5002072;28;20041;-71
2021/03/22 06:53:44;;;;;;;3.73;2.10;;;;;;;-0.05;96.48;101194.47;5007855;28;20224;-71
2021/03/22 06:56:20;;;;;;;5.33;3.07;;;;;;;0.10;94.84;101195.78;5008642;28;20073;-71
2021/03/22 06:58:49;;;;;;;7.90;5.40;;;;;;;0.29;94.58;101200.69;5001820;28;20077;-71
2021/03/22 07:01:23;;;;;;;14.27;9.03;;;;;;;0.45;94.50;101212.41;4988622;28;20053;-71
2021/03/22 07:03:50;;;;;;;23.35;15.63;;;;;;;0.66;94.09;101212.13;4991328;28;20437;-71
2021/03/22 07:06:20;;;;;;;23.30;15.83;;;;;;;0.89;92.92;101208.47;5007783;28;20100;-71
2021/03/22 07:08:47;;;;;;;15.63;10.67;;;;;;;1.20;92.36;101219.72;5007201;28;20073;-71
2021/03/22 07:11:23;;;;;;;5.43;2.90;;;;;;;1.48;91.00;101216.97;5008410;28;20041;-72
2021/03/22 07:14:02;;;;;;;3.87;1.97;;;;;;;1.78;89.86;101214.25;5003529;28;20490;-72
2021/03/22 07:16:30;;;;;;;2.40;1.50;;;;;;;2.07;89.11;101208.81;4969987;28;20181;-71
2021/03/22 07:19:16;;;;;;;3.50;1.90;;;;;;;2.32;86.80;101213.75;4992839;28;20129;-72
2021/03/22 07:21:49;;;;;;;4.10;1.60;;;;;;;2.58;83.87;101206.47;4992865;28;20304;-72
2021/03/22 07:24:23;;;;;;;3.87;1.70;;;;;;;2.90;84.91;101209.72;4988145;28;20084;-72
2021/03/22 07:27:08;;;;;;;5.80;2.80;;;;;;;3.26;83.42;101222.59;4975052;28;20037;-72
2021/03/22 07:29:47;;;;;;;4.83;2.53;;;;;;;3.72;80.02;101217.28;4999978;28;20192;-72
2021/03/22 07:32:46;;;;;;;6.13;2.43;;;;;;;4.34;79.55;101214.72;5000087;28;20484;-72
2021/03/22 07:35:38;;;;;;;5.73;2.93;;;;;;;4.83;78.34;101207.50;4991599;28;20033;-72
2021/03/22 07:38:27;;;;;;;4.67;2.20;;;;;;;5.34;77.36;101218.53;4993238;28;20578;-72
2021/03/22 07:41:13;;;;;;;3.40;1.50;;;;;;;5.54;73.50;101216.09;5009058;28;20100;-72
2021/03/22 07:44:10;;;;;;;2.73;1.67;;;;;;;6.03;73.15;101219.13;5004211;28;20049;-73
2021/03/22 07:46:55;;;;;;;5.73;2.30;;;;;;;6.52;70.45;101215.94;4990600;28;20498;-73
2021/03/22 07:49:50;;;;;;;4.13;2.03;;;;;;;6.95;70.93;101219.63;5003314;28;20513;-72
2021/03/22 07:52:26;;;;;;;4.57;1.73;;;;;;;7.31;67.97;101208.31;5002141;28;20041;-72
2021/03/22 07:55:36;;;;;;;3.07;1.87;;;;;;;7.77;68.49;101209.22;5004985;28;20172;-72
2021/03/22 07:58:21;;;;;;;2.63;1.77;;;;;;;8.43;66.88;101214.44;4979330;28;20046;-73
2021/03/22 08:01:05;;;;;;;4.13;1.90;;;;;;;8.58;59.83;101213.53;4984591;28;20065;-72
2021/03/22 08:03:55;;;;;;;;;;;;;;;9.40;58.47;101209.56;4990124;28;20068;-73
2021/03/22 08:06:35;;;;;;;5.28;2.25;;;;;;;9.69;57.33;101227.81;4979275;28;19984;-72
2021/03/22 08:09:14;;;;;;;2.65;1.60;;;;;;;10.19;56.97;101221.22;5004147;28;20652;-73
2021/03/22 08:11:52;;;;;;;3.20;2.03;;;;;;;10.11;52.41;101230.09;5005357;28;20197;-72
2021/03/22 08:14:37;;;;;;;5.43;1.65;;;;;;;10.75;54.03;101233.81;5003523;28;20058;-73
2021/03/22 08:17:28;;;;;;;3.50;2.17;;;;;;;11.09;54.27;101234.28;5000054;28;20041;-72
2021/03/22 08:20:17;;;;;;;4.45;2.03;;;;;;;10.91;50.50;101231.88;5015862;28;20042;-72
2021/03/22 08:23:04;;;;;;;4.38;2.30;;;;;;;10.41;48.34;101235.97;5001569;28;20479;-73
2021/03/22 08:25:43;;;;;;;5.47;2.92;;;;;;;10.10;49.06;101230.13;4997248;28;20033;-72
2021/03/22 08:28:38;;;;;;;5.30;1.80;;;;;;;10.50;52.32;101233.22;4995713;28;20057;-72
2021/03/22 08:31:36;;;;;;;3.72;2.00;;;;;;;10.82;48.38;101237.28;5000747;28;20029;-72
2021/03/22 08:34:14;;;;;;;4.47;1.92;;;;;;;10.94;47.78;101231.84;4999346;28;20471;-72
2021/03/22 08:36:55;;;;;;;6.57;3.45;;;;;;;11.01;49.42;101241.44;4994887;28;20034;-72
2021/03/22 08:39:32;;;;;;;4.97;3.10;;;;;;;11.15;49.97;101242.13;5002318;28;20041;-72
2021/03/22 08:42:18;;;;;;;6.78;2.70;;;;;;;11.45;48.53;101246.13;4995116;28;20137;-72
2021/03/22 08:44:52;;;;;;;4.57;2.33;;;;;;;11.21;47.63;101247.34;5001230;28;20100;-72
2021/03/22 08:47:44;;;;;;;5.82;2.05;;;;;;;11.11;50.92;101250.16;5010501;28;20506;-72
2021/03/22 08:50:17;;;;;;;4.25;2.55;;;;;;;10.92;47.11;101246.84;4994518;28;20060;-72
2021/03/22 08:53:10;;;;;;;3.88;2.63;;;;;;;10.88;45.51;101256.59;4999369;28;20038;-72
2021/03/22 08:55:39;;;;;;;4.72;2.08;;;;;;;11.15;44.44;101258.00;4990199;28;20078;-72
2021/03/22 08:58:14;;;;;;;3.90;2.42;;;;;;;11.01;46.23;101262.56;4983037;28;20511;-72
2021/03/22 09:00:42;;;;;;;4.80;2.58;;;;;;;11.66;44.88;101252.84;5016144;28;20049;-73
2021/03/22 09:03:15;;;;;;;6.13;1.67;;;;;;;12.39;44.14;101256.06;4987871;28;20675;-72
2021/03/22 09:06:06;;;;;;;4.53;1.92;;;;;;;11.34;44.71;101250.69;5003497;28;20050;-72
2021/03/22 09:08:36;;;;;;;7.05;2.38;;;;;;;11.42;44.82;101266.44;5000377;28;20092;-73
2021/03/22 09:11:20;;;;;;;5.18;2.40;;;;;;;12.62;45.00;101255.66;5002997;28;20041;-72
2021/03/22 09:13:56;;;;;;;4.65;2.00;;;;;;;13.31;44.63;101263.06;4995019;28;20049;-73
2021/03/22 09:16:22;;;;;;;6.47;2.38;;;;;;;14.16;40.56;101254.84;5017391;28;20079;-72
2021/03/22 09:19:11;;;;;;;4.70;2.05;;;;;;;14.21;36.04;101258.25;4999535;28;20077;-72
2021/03/22 09:22:04;;;;;;;4.93;1.77;;;;;;;14.93;36.86;101256.31;5018935;28;20033;-72
2021/03/22 09:24:43;;;;;;;3.45;1.92;;;;;;;14.89;36.57;101258.19;4982496;28;20092;-72
2021/03/22 09:27:15;;;;;;;3.28;1.45;;;;;;;15.37;36.06;101264.75;5019140;28;20052;-72
2021/03/22 09:29:45;;;;;;;3.20;1.98;;;;;;;14.30;34.05;101258.00;5021071;28;20218;-72
2021/03/22 09:32:23;;;;;;;4.43;1.70;;;;;;;15.72;36.88;101255.66;5020362;28;20613;-72
2021/03/22 09:35:14;;;;;;;4.97;1.70;;;;;;;16.82;35.20;101254.59;5003506;28;20053;-73
2021/03/22 09:37:49;;;;;;;4.28;1.77;;;;;;;17.68;31.84;101257.47;4986220;28;20057;-72
2021/03/22 09:40:19;;;;;;;3.72;1.48;;;;;;;18.46;29.41;101246.19;5013699;28;20061;-72
2021/03/22 09:43:04;;;;;;;5.60;1.50;;;;;;;19.55;28.52;101247.44;4986521;28;20784;-73
2021/03/22 09:45:52;;;;;;;6.07;2.08;;;;;;;18.94;28.91;101245.84;5000071;28;20073;-72
2021/03/22 09:48:21;;;;;;;2.75;1.60;;;;;;;19.66;28.02;101248.66;4998419;28;20327;-73
2021/03/22 09:50:52;;;;;;;1.88;1.30;;;;;;;21.09;30.14;101251.09;5017570;28;20042;-73
2021/03/22 09:53:39;;;;;;;2.08;1.42;;;;;;;20.98;25.89;101245.44;4989232;28;20046;-73
2021/03/22 09:56:08;;;;;;;4.38;2.00;;;;;;;19.29;26.39;101249.56;5015869;28;20514;-73
2021/03/22 09:58:45;;;;;;;3.15;1.50;;;;;;;20.89;30.30;101253.16;4996402;28;20045;-73
2021/03/22 10:01:34;;;;;;;3.42;1.77;;;;;;;21.75;25.58;101265.38;5004430;28;20077;-73
2021/03/22 10:04:14;;;;;;;2.22;1.45;;;;;;;20.85;26.75;101252.47;5019429;28;20121;-73
2021/03/22 10:06:56;;;;;;;5.50;1.52;;;;;;;20.59;27.38;101255.63;5019670;28;20034;-73
2021/03/22 10:09:24;;;;;;;3.42;1.98;;;;;;;21.92;25.21;101255.38;5006495;28;20034;-73
2021/03/22 10:11:53;;;;;;;2.95;1.45;;;;;;;23.27;25.19;101255.25;5021690;28;20133;-73
2021/03/22 10:14:28;;;;;;;2.75;1.38;;;;;;;23.82;22.83;101249.88;5006109;28;20056;-73
2021/03/22 10:16:55;;;;;;;2.45;1.40;;;;;;;23.46;24.03;101255.84;5005474;28;20446;-73
2021/03/22 10:19:28;;;;;;;3.50;1.65;;;;;;;23.08;22.46;101257.41;5022810;28;20076;-73
2021/03/22 10:21:58;;;;;;;2.97;1.50;;;;;;;24.29;26.27;101253.00;5007257;28;20141;-73
2021/03/22 10:24:37;;;;;;;2.75;1.60;;;;;;;24.06;20.79;101252.78;4988556;28;20522;-73
2021/03/22 10:27:19;;;;;;;2.75;1.45;;;;;;;24.54;23.17;101253.09;4996942;28;20049;-73
2021/03/22 10:29:46;;;;;;;2.88;1.80;;;;;;;22.98;23.22;101249.03;5019606;28;20453;-77
2021/03/22 10:32:22;;;;;;;4.00;2.03;;;;;;;22.70;20.80;101258.81;4994160;28;20049;-76
2021/03/22 10:34:52;;;;;;;2.40;1.55;;;;;;;22.19;23.58;101258.28;4992880;28;20588;-76
2021/03/22 10:37:25;;;;;;;3.60;1.40;;;;;;;21.11;24.55;101261.78;4983738;28;20506;-77
2021/03/22 10:39:57;;;;;;;3.35;1.40;;;;;;;19.56;25.43;101260.78;5003272;28;20570;-76
2021/03/22 10:42:31;;;;;;;1.90;1.60;;;;;;;19.39;23.78;101252.66;4983781;28;20141;-77
2021/03/22 10:44:57;;;;;;;3.13;1.48;;;;;;;20.31;24.61;101257.03;5007846;28;20044;-76
2021/03/22 10:47:28;;;;;;;1.73;1.25;;;;;;;22.04;23.42;101256.50;5007758;28;20050;-76
2021/03/22 10:50:14;;;;;;;2.53;1.70;;;;;;;22.58;23.10;101258.69;4977290;28;20069;-76
2021/03/22 10:52:40;;;;;;;2.67;1.30;;;;;;;23.53;22.54;101251.75;5000266;28;20046;-76
2021/03/22 10:55:24;;;;;;;4.25;1.52;;;;;;;24.52;23.93;101252.34;5003982;28;20052;-77
2021/03/22 10:57:50;;;;;;;2.50;1.38;;;;;;;24.99;20.20;101262.50;5025228;28;20100;-77
2021/03/22 11:00:33;;;;;;;2.70;1.30;;;;;;;25.40;19.50;101255.13;4987980;28;20124;-76
2021/03/22 11:03:03;;;;;;;2.08;1.20;;;;;;;24.42;19.39;101264.75;4991242;28;20049;-76
2021/03/22 11:05:35;;;;;;;3.05;1.30;;;;;;;24.52;20.30;101263.16;5000787;28;20124;-77
2021/03/22 11:08:06;;;;;;;1.67;1.23;;;;;;;24.51;19.77;101256.00;5002264;28;20108;-77
2021/03/22 11:10:35;;;;;;;1.83;1.35;;;;;;;24.52;17.00;101256.88;4985915;28;20548;-76
2021/03/22 11:13:02;;;;;;;1.77;1.20;;;;;;;21.67;18.34;101256.88;5019636;28;20052;-76
2021/03/22 11:15:35;;;;;;;2.17;1.10;;;;;;;21.44;19.25;101255.50;5004051;28;20051;-76
2021/03/22 11:18:04;;;;;;;1.75;1.05;;;;;;;22.22;18.73;101254.56;4997331;28;20037;-76
2021/03/22 11:20:31;;;;;;;2.85;1.10;;;;;;;23.76;22.47;101250.28;5019568;28;20045;-76
2021/03/22 11:23:24;;;;;;;1.95;1.20;;;;;;;24.84;20.45;101241.97;5006977;28;20041;-77
2021/03/22 11:25:51;;;;;;;1.67;1.33;;;;;;;25.32;19.97;101252.13;4998358;28;20045;-77
2021/03/22 11:28:17;;;;;;;2.30;1.30;;;;;;;24.98;18.61;101249.13;4992279;28;20053;-77
2021/03/22 11:30:53;;;;;;;2.30;1.33;;;;;;;22.72;18.76;101250.63;5012942;28;20053;-76
2021/03/22 11:33:25;;;;;;;3.17;1.48;;;;;;;22.48;21.29;101251.16;5012113;28;20081;-76
2021/03/22 11:36:01;;;;;;;;;;;;;;;23.86;19.61;101245.13;4994196;28;20046;-76
2021/03/22 11:38:35;;;;;;;1.38;1.13;;;;;;;25.62;20.44;101241.72;5007635;28;19940;-77
2021/03/22 11:41:02;;;;;;;1.98;1.13;;;;;;;26.01;17.83;101242.47;4991562;28;20038;-76
2021/03/22 11:43:31;;;;;;;2.33;1.20;;;;;;;24.73;18.16;101244.59;5004717;28;20049;-76
2021/03/22 11:46:12;;;;;;;1.90;1.50;;;;;;;24.62;19.68;101248.00;4999260;28;20042;-76
2021/03/22 11:48:39;;;;;;;2.78;1.40;;;;;;;23.94;18.98;101240.09;4995834;28;20038;-76
2021/03/22 11:51:10;;;;;;;3.00;1.20;;;;;;;24.06;18.58;101217.69;5006161;28;20339;-76